Butte, Montana
Current Conditions -  °F | °C
As of 10:53 PM on Friday 28 Nov 2014 (Local Time) from KBTM Reporting Station
Overcast Overcast  
Wind Chill: 33°   Ceiling: 4300
Heat Index: 40°   Visibility: 10mi
Dew Point: 27°   Wind: 10mph
Humidity: 60%   Direction: 230°SW
Pressure: 29.46"   Gusts: NA
Location:  45.95°N, 112.5°W
Report Text: KBTM 290553Z AUTO 23009KT 10SM BKN043 OVC100 04/M03 A2946 RMK AO2 PK WND 24029/0509 SLP963 T00441028 10078 20044 56004
Loading
Personal Weather Stations






























Interactive Weather Map New forecast layout! Learn more

10-Day Weather Forecast

Advertisements
Track Severe Weather on mobile